sensor_id;sensor_type;location;lat;lon;timestamp;P1;durP1;ratioP1;P2;durP2;ratioP2
16484;SDS011;8353;47.856;12.344;2023-10-09T00:01:08;11.50;;;5.00;;
16484;SDS011;8353;47.856;12.344;2023-10-09T00:03:43;10.02;;;4.13;;
16484;SDS011;8353;47.856;12.344;2023-10-09T00:06:15;5.45;;;3.63;;
16484;SDS011;8353;47.856;12.344;2023-10-09T00:08:52;11.02;;;4.60;;
16484;SDS011;8353;47.856;12.344;2023-10-09T00:11:24;7.32;;;3.83;;
16484;SDS011;8353;47.856;12.344;2023-10-09T00:13:58;6.68;;;3.90;;
16484;SDS011;8353;47.856;12.344;2023-10-09T00:16:29;8.65;;;3.75;;
16484;SDS011;8353;47.856;12.344;2023-10-09T00:19:03;8.13;;;4.18;;
16484;SDS011;8353;47.856;12.344;2023-10-09T00:21:45;8.27;;;3.75;;
16484;SDS011;8353;47.856;12.344;2023-10-09T00:24:15;6.72;;;3.63;;
16484;SDS011;8353;47.856;12.344;2023-10-09T00:26:52;6.57;;;3.63;;
16484;SDS011;8353;47.856;12.344;2023-10-09T00:29:30;10.20;;;3.80;;
16484;SDS011;8353;47.856;12.344;2023-10-09T00:32:03;8.63;;;3.55;;
16484;SDS011;8353;47.856;12.344;2023-10-09T00:34:42;8.00;;;3.63;;
16484;SDS011;8353;47.856;12.344;2023-10-09T00:37:14;5.63;;;3.10;;
16484;SDS011;8353;47.856;12.344;2023-10-09T00:39:45;8.85;;;3.85;;
16484;SDS011;8353;47.856;12.344;2023-10-09T00:42:17;7.70;;;3.33;;
16484;SDS011;8353;47.856;12.344;2023-10-09T00:44:57;6.82;;;3.33;;
16484;SDS011;8353;47.856;12.344;2023-10-09T00:47:33;6.93;;;3.38;;
16484;SDS011;8353;47.856;12.344;2023-10-09T00:50:05;8.18;;;3.60;;
16484;SDS011;8353;47.856;12.344;2023-10-09T00:52:51;5.18;;;3.10;;
16484;SDS011;8353;47.856;12.344;2023-10-09T00:55:31;5.78;;;2.83;;
16484;SDS011;8353;47.856;12.344;2023-10-09T00:58:06;6.20;;;3.13;;
16484;SDS011;8353;47.856;12.344;2023-10-09T01:00:41;7.55;;;3.13;;
16484;SDS011;8353;47.856;12.344;2023-10-09T01:03:16;6.90;;;3.17;;
16484;SDS011;8353;47.856;12.344;2023-10-09T01:05:51;8.98;;;3.53;;
16484;SDS011;8353;47.856;12.344;2023-10-09T01:08:28;9.10;;;3.60;;
16484;SDS011;8353;47.856;12.344;2023-10-09T01:11:00;5.57;;;2.70;;
16484;SDS011;8353;47.856;12.344;2023-10-09T01:13:39;7.03;;;3.25;;
16484;SDS011;8353;47.856;12.344;2023-10-09T01:16:22;8.05;;;3.05;;
16484;SDS011;8353;47.856;12.344;2023-10-09T01:18:53;8.77;;;3.50;;
16484;SDS011;8353;47.856;12.344;2023-10-09T01:21:26;8.75;;;2.72;;
16484;SDS011;8353;47.856;12.344;2023-10-09T01:24:01;5.97;;;3.00;;
16484;SDS011;8353;47.856;12.344;2023-10-09T01:26:38;4.43;;;2.60;;
16484;SDS011;8353;47.856;12.344;2023-10-09T01:29:13;8.27;;;2.80;;
16484;SDS011;8353;47.856;12.344;2023-10-09T01:31:46;8.30;;;2.95;;
16484;SDS011;8353;47.856;12.344;2023-10-09T01:34:23;7.70;;;3.42;;
16484;SDS011;8353;47.856;12.344;2023-10-09T01:37:08;5.78;;;2.80;;
16484;SDS011;8353;47.856;12.344;2023-10-09T01:39:48;8.00;;;3.00;;
16484;SDS011;8353;47.856;12.344;2023-10-09T01:42:20;8.45;;;3.13;;
16484;SDS011;8353;47.856;12.344;2023-10-09T01:45:02;7.63;;;2.88;;
16484;SDS011;8353;47.856;12.344;2023-10-09T01:47:55;8.82;;;3.30;;
16484;SDS011;8353;47.856;12.344;2023-10-09T01:50:26;10.55;;;3.50;;
16484;SDS011;8353;47.856;12.344;2023-10-09T01:52:59;8.55;;;3.90;;
16484;SDS011;8353;47.856;12.344;2023-10-09T01:55:32;9.32;;;3.40;;
16484;SDS011;8353;47.856;12.344;2023-10-09T01:58:06;7.50;;;3.35;;
16484;SDS011;8353;47.856;12.344;2023-10-09T02:00:45;10.80;;;2.90;;
16484;SDS011;8353;47.856;12.344;2023-10-09T02:03:17;11.35;;;3.83;;
16484;SDS011;8353;47.856;12.344;2023-10-09T02:05:52;15.85;;;4.00;;
16484;SDS011;8353;47.856;12.344;2023-10-09T02:08:30;8.20;;;3.65;;
16484;SDS011;8353;47.856;12.344;2023-10-09T02:11:10;9.13;;;2.95;;
16484;SDS011;8353;47.856;12.344;2023-10-09T02:13:43;7.22;;;3.13;;
16484;SDS011;8353;47.856;12.344;2023-10-09T02:16:22;10.77;;;3.67;;
16484;SDS011;8353;47.856;12.344;2023-10-09T02:18:57;5.63;;;2.63;;
16484;SDS011;8353;47.856;12.344;2023-10-09T02:21:28;7.25;;;2.55;;
16484;SDS011;8353;47.856;12.344;2023-10-09T02:23:58;6.65;;;2.88;;
16484;SDS011;8353;47.856;12.344;2023-10-09T02:26:35;7.28;;;2.50;;
16484;SDS011;8353;47.856;12.344;2023-10-09T02:29:30;6.18;;;2.70;;
16484;SDS011;8353;47.856;12.344;2023-10-09T02:32:03;5.97;;;3.15;;
16484;SDS011;8353;47.856;12.344;2023-10-09T02:34:43;6.78;;;2.65;;
16484;SDS011;8353;47.856;12.344;2023-10-09T02:37:15;7.47;;;3.35;;
16484;SDS011;8353;47.856;12.344;2023-10-09T02:39:51;8.10;;;2.80;;
16484;SDS011;8353;47.856;12.344;2023-10-09T02:42:23;9.52;;;3.40;;
16484;SDS011;8353;47.856;12.344;2023-10-09T02:44:56;7.28;;;2.88;;
16484;SDS011;8353;47.856;12.344;2023-10-09T02:47:27;8.63;;;2.95;;
16484;SDS011;8353;47.856;12.344;2023-10-09T02:50:00;5.05;;;2.55;;
16484;SDS011;8353;47.856;12.344;2023-10-09T02:52:36;6.25;;;2.90;;
16484;SDS011;8353;47.856;12.344;2023-10-09T02:55:09;13.45;;;3.55;;
16484;SDS011;8353;47.856;12.344;2023-10-09T02:57:43;6.97;;;3.15;;
16484;SDS011;8353;47.856;12.344;2023-10-09T03:00:13;8.98;;;3.28;;
16484;SDS011;8353;47.856;12.344;2023-10-09T03:02:47;7.03;;;2.53;;
16484;SDS011;8353;47.856;12.344;2023-10-09T03:05:19;9.30;;;2.95;;
16484;SDS011;8353;47.856;12.344;2023-10-09T03:07:49;10.65;;;3.20;;
16484;SDS011;8353;47.856;12.344;2023-10-09T03:10:22;5.25;;;2.38;;
16484;SDS011;8353;47.856;12.344;2023-10-09T03:12:55;7.10;;;3.00;;
16484;SDS011;8353;47.856;12.344;2023-10-09T03:15:28;7.53;;;3.10;;
16484;SDS011;8353;47.856;12.344;2023-10-09T03:18:04;8.07;;;2.85;;
16484;SDS011;8353;47.856;12.344;2023-10-09T03:20:34;7.80;;;2.97;;
16484;SDS011;8353;47.856;12.344;2023-10-09T03:23:05;5.10;;;2.40;;
16484;SDS011;8353;47.856;12.344;2023-10-09T03:25:38;9.00;;;3.55;;
16484;SDS011;8353;47.856;12.344;2023-10-09T03:28:10;7.75;;;3.13;;
16484;SDS011;8353;47.856;12.344;2023-10-09T03:30:43;2.83;;;1.92;;
16484;SDS011;8353;47.856;12.344;2023-10-09T03:33:16;10.85;;;3.72;;
16484;SDS011;8353;47.856;12.344;2023-10-09T03:35:47;9.50;;;3.20;;
16484;SDS011;8353;47.856;12.344;2023-10-09T03:38:18;6.72;;;2.83;;
16484;SDS011;8353;47.856;12.344;2023-10-09T03:40:48;9.77;;;3.40;;
16484;SDS011;8353;47.856;12.344;2023-10-09T03:43:20;12.57;;;3.88;;
16484;SDS011;8353;47.856;12.344;2023-10-09T03:45:51;11.20;;;3.15;;
16484;SDS011;8353;47.856;12.344;2023-10-09T03:48:22;8.30;;;2.55;;
16484;SDS011;8353;47.856;12.344;2023-10-09T03:50:55;10.02;;;3.75;;
16484;SDS011;8353;47.856;12.344;2023-10-09T03:53:37;12.52;;;4.47;;
16484;SDS011;8353;47.856;12.344;2023-10-09T03:56:09;8.57;;;3.90;;
16484;SDS011;8353;47.856;12.344;2023-10-09T03:58:43;7.85;;;3.05;;
16484;SDS011;8353;47.856;12.344;2023-10-09T04:01:14;6.68;;;3.15;;
16484;SDS011;8353;47.856;12.344;2023-10-09T04:03:51;9.35;;;3.17;;
16484;SDS011;8353;47.856;12.344;2023-10-09T04:06:24;13.63;;;4.22;;
16484;SDS011;8353;47.856;12.344;2023-10-09T04:08:57;8.35;;;3.70;;
16484;SDS011;8353;47.856;12.344;2023-10-09T04:11:28;6.28;;;2.67;;
16484;SDS011;8353;47.856;12.344;2023-10-09T04:14:00;7.43;;;2.88;;
16484;SDS011;8353;47.856;12.344;2023-10-09T04:16:38;11.18;;;4.38;;
16484;SDS011;8353;47.856;12.344;2023-10-09T04:19:20;11.95;;;4.13;;
16484;SDS011;8353;47.856;12.344;2023-10-09T04:21:50;5.30;;;3.10;;
16484;SDS011;8353;47.856;12.344;2023-10-09T04:24:24;10.38;;;4.32;;
16484;SDS011;8353;47.856;12.344;2023-10-09T04:27:09;11.23;;;3.83;;
16484;SDS011;8353;47.856;12.344;2023-10-09T04:29:43;7.15;;;3.80;;
16484;SDS011;8353;47.856;12.344;2023-10-09T04:32:16;12.77;;;4.47;;
16484;SDS011;8353;47.856;12.344;2023-10-09T04:34:47;7.45;;;3.28;;
16484;SDS011;8353;47.856;12.344;2023-10-09T04:37:26;6.20;;;3.15;;
16484;SDS011;8353;47.856;12.344;2023-10-09T04:40:08;8.80;;;3.65;;
16484;SDS011;8353;47.856;12.344;2023-10-09T04:43:02;11.30;;;4.60;;
16484;SDS011;8353;47.856;12.344;2023-10-09T04:45:37;11.02;;;4.45;;
16484;SDS011;8353;47.856;12.344;2023-10-09T04:48:21;8.10;;;3.70;;
16484;SDS011;8353;47.856;12.344;2023-10-09T04:51:02;5.97;;;2.88;;
16484;SDS011;8353;47.856;12.344;2023-10-09T04:53:49;8.43;;;2.95;;
16484;SDS011;8353;47.856;12.344;2023-10-09T04:56:28;5.10;;;3.03;;
16484;SDS011;8353;47.856;12.344;2023-10-09T04:59:01;9.73;;;3.22;;
16484;SDS011;8353;47.856;12.344;2023-10-09T05:01:37;6.93;;;3.15;;
16484;SDS011;8353;47.856;12.344;2023-10-09T05:04:12;6.45;;;2.92;;
16484;SDS011;8353;47.856;12.344;2023-10-09T05:07:04;4.88;;;2.90;;
16484;SDS011;8353;47.856;12.344;2023-10-09T05:09:51;10.68;;;3.83;;
16484;SDS011;8353;47.856;12.344;2023-10-09T05:12:43;6.40;;;2.97;;
16484;SDS011;8353;47.856;12.344;2023-10-09T05:15:16;10.98;;;3.42;;
16484;SDS011;8353;47.856;12.344;2023-10-09T05:17:48;8.90;;;3.50;;
16484;SDS011;8353;47.856;12.344;2023-10-09T05:20:25;10.40;;;3.72;;
16484;SDS011;8353;47.856;12.344;2023-10-09T05:23:24;7.65;;;3.20;;
16484;SDS011;8353;47.856;12.344;2023-10-09T05:25:58;7.97;;;2.60;;
16484;SDS011;8353;47.856;12.344;2023-10-09T05:28:47;7.78;;;3.50;;
16484;SDS011;8353;47.856;12.344;2023-10-09T05:31:21;6.57;;;3.22;;
16484;SDS011;8353;47.856;12.344;2023-10-09T05:34:14;9.60;;;3.78;;
16484;SDS011;8353;47.856;12.344;2023-10-09T05:36:48;8.98;;;3.05;;
16484;SDS011;8353;47.856;12.344;2023-10-09T05:39:17;11.35;;;4.15;;
16484;SDS011;8353;47.856;12.344;2023-10-09T05:41:56;13.27;;;3.97;;
16484;SDS011;8353;47.856;12.344;2023-10-09T05:44:28;5.43;;;2.85;;
16484;SDS011;8353;47.856;12.344;2023-10-09T05:47:16;9.40;;;6.25;;
16484;SDS011;8353;47.856;12.344;2023-10-09T05:49:59;10.27;;;5.15;;
16484;SDS011;8353;47.856;12.344;2023-10-09T05:52:47;9.23;;;4.70;;
16484;SDS011;8353;47.856;12.344;2023-10-09T05:55:36;12.27;;;5.50;;
16484;SDS011;8353;47.856;12.344;2023-10-09T05:58:33;10.45;;;4.95;;
16484;SDS011;8353;47.856;12.344;2023-10-09T06:01:43;9.40;;;5.28;;
16484;SDS011;8353;47.856;12.344;2023-10-09T06:04:31;9.35;;;4.55;;
16484;SDS011;8353;47.856;12.344;2023-10-09T06:07:19;10.48;;;5.13;;
16484;SDS011;8353;47.856;12.344;2023-10-09T06:09:53;10.60;;;4.45;;
16484;SDS011;8353;47.856;12.344;2023-10-09T06:12:24;9.35;;;4.18;;
16484;SDS011;8353;47.856;12.344;2023-10-09T06:15:17;9.98;;;3.80;;
16484;SDS011;8353;47.856;12.344;2023-10-09T06:17:48;7.78;;;4.20;;
16484;SDS011;8353;47.856;12.344;2023-10-09T06:20:20;7.80;;;3.60;;
16484;SDS011;8353;47.856;12.344;2023-10-09T06:23:10;8.18;;;4.07;;
16484;SDS011;8353;47.856;12.344;2023-10-09T06:25:48;10.32;;;4.10;;
16484;SDS011;8353;47.856;12.344;2023-10-09T06:28:19;13.40;;;6.20;;
16484;SDS011;8353;47.856;12.344;2023-10-09T06:31:01;13.48;;;6.38;;
16484;SDS011;8353;47.856;12.344;2023-10-09T06:33:52;17.30;;;6.57;;
16484;SDS011;8353;47.856;12.344;2023-10-09T06:36:36;10.18;;;5.30;;
16484;SDS011;8353;47.856;12.344;2023-10-09T06:39:23;13.85;;;5.57;;
16484;SDS011;8353;47.856;12.344;2023-10-09T06:42:07;8.43;;;4.20;;
16484;SDS011;8353;47.856;12.344;2023-10-09T06:45:00;9.88;;;4.30;;
16484;SDS011;8353;47.856;12.344;2023-10-09T06:47:32;12.38;;;4.25;;
16484;SDS011;8353;47.856;12.344;2023-10-09T06:50:10;7.40;;;3.30;;
16484;SDS011;8353;47.856;12.344;2023-10-09T06:53:16;10.73;;;4.90;;
16484;SDS011;8353;47.856;12.344;2023-10-09T06:55:58;10.02;;;3.80;;
16484;SDS011;8353;47.856;12.344;2023-10-09T06:58:34;5.68;;;3.45;;
16484;SDS011;8353;47.856;12.344;2023-10-09T07:01:11;12.25;;;4.60;;
16484;SDS011;8353;47.856;12.344;2023-10-09T07:03:53;9.20;;;3.88;;
16484;SDS011;8353;47.856;12.344;2023-10-09T07:06:28;8.15;;;4.72;;
16484;SDS011;8353;47.856;12.344;2023-10-09T07:09:16;13.18;;;4.38;;
16484;SDS011;8353;47.856;12.344;2023-10-09T07:11:49;7.80;;;3.38;;
16484;SDS011;8353;47.856;12.344;2023-10-09T07:14:27;12.85;;;5.28;;
16484;SDS011;8353;47.856;12.344;2023-10-09T07:17:15;14.50;;;4.45;;
16484;SDS011;8353;47.856;12.344;2023-10-09T07:19:51;13.52;;;4.57;;
16484;SDS011;8353;47.856;12.344;2023-10-09T07:22:42;12.73;;;4.25;;
16484;SDS011;8353;47.856;12.344;2023-10-09T07:25:42;8.80;;;3.53;;
16484;SDS011;8353;47.856;12.344;2023-10-09T07:28:25;11.82;;;4.97;;
16484;SDS011;8353;47.856;12.344;2023-10-09T07:31:05;11.27;;;4.07;;
16484;SDS011;8353;47.856;12.344;2023-10-09T07:33:38;8.85;;;3.35;;
16484;SDS011;8353;47.856;12.344;2023-10-09T07:36:29;11.00;;;3.58;;
16484;SDS011;8353;47.856;12.344;2023-10-09T07:39:03;9.20;;;3.65;;
16484;SDS011;8353;47.856;12.344;2023-10-09T07:41:42;7.85;;;3.80;;
16484;SDS011;8353;47.856;12.344;2023-10-09T07:44:31;8.73;;;3.38;;
16484;SDS011;8353;47.856;12.344;2023-10-09T07:47:06;9.80;;;3.70;;
16484;SDS011;8353;47.856;12.344;2023-10-09T07:50:02;7.90;;;3.88;;
16484;SDS011;8353;47.856;12.344;2023-10-09T07:52:33;10.68;;;3.72;;
16484;SDS011;8353;47.856;12.344;2023-10-09T07:55:12;8.02;;;2.97;;
16484;SDS011;8353;47.856;12.344;2023-10-09T07:57:55;12.70;;;3.40;;
16484;SDS011;8353;47.856;12.344;2023-10-09T08:00:27;8.27;;;3.20;;
16484;SDS011;8353;47.856;12.344;2023-10-09T08:03:24;11.35;;;3.45;;
16484;SDS011;8353;47.856;12.344;2023-10-09T08:06:01;10.52;;;2.95;;
16484;SDS011;8353;47.856;12.344;2023-10-09T08:08:57;7.80;;;3.13;;
16484;SDS011;8353;47.856;12.344;2023-10-09T08:11:46;5.72;;;2.88;;
16484;SDS011;8353;47.856;12.344;2023-10-09T08:14:42;6.85;;;2.90;;
16484;SDS011;8353;47.856;12.344;2023-10-09T08:17:18;6.68;;;2.92;;
16484;SDS011;8353;47.856;12.344;2023-10-09T08:19:50;10.70;;;3.45;;
16484;SDS011;8353;47.856;12.344;2023-10-09T08:22:23;8.40;;;2.97;;
16484;SDS011;8353;47.856;12.344;2023-10-09T08:25:19;13.40;;;3.47;;
16484;SDS011;8353;47.856;12.344;2023-10-09T08:28:06;8.40;;;3.38;;
16484;SDS011;8353;47.856;12.344;2023-10-09T08:31:16;11.65;;;3.30;;
16484;SDS011;8353;47.856;12.344;2023-10-09T08:34:28;10.23;;;3.53;;
16484;SDS011;8353;47.856;12.344;2023-10-09T08:36:58;8.27;;;2.90;;
16484;SDS011;8353;47.856;12.344;2023-10-09T08:47:08;8.63;;;3.08;;
16484;SDS011;8353;47.856;12.344;2023-10-09T08:49:41;7.55;;;3.03;;
16484;SDS011;8353;47.856;12.344;2023-10-09T08:52:11;14.90;;;3.40;;
16484;SDS011;8353;47.856;12.344;2023-10-09T08:54:43;8.98;;;3.03;;
16484;SDS011;8353;47.856;12.344;2023-10-09T08:57:15;12.93;;;3.67;;
16484;SDS011;8353;47.856;12.344;2023-10-09T08:59:49;9.88;;;3.30;;
16484;SDS011;8353;47.856;12.344;2023-10-09T09:02:19;10.45;;;3.42;;
16484;SDS011;8353;47.856;12.344;2023-10-09T09:04:51;10.27;;;3.45;;
16484;SDS011;8353;47.856;12.344;2023-10-09T09:07:24;11.85;;;3.28;;
16484;SDS011;8353;47.856;12.344;2023-10-09T09:09:57;9.50;;;3.20;;
16484;SDS011;8353;47.856;12.344;2023-10-09T09:12:32;6.03;;;2.78;;
16484;SDS011;8353;47.856;12.344;2023-10-09T09:15:15;7.22;;;2.83;;
16484;SDS011;8353;47.856;12.344;2023-10-09T09:17:49;9.32;;;2.45;;
16484;SDS011;8353;47.856;12.344;2023-10-09T09:20:23;11.57;;;3.58;;
16484;SDS011;8353;47.856;12.344;2023-10-09T09:23:04;11.02;;;3.70;;
16484;SDS011;8353;47.856;12.344;2023-10-09T09:25:41;9.73;;;2.85;;
16484;SDS011;8353;47.856;12.344;2023-10-09T09:28:19;7.78;;;2.75;;
16484;SDS011;8353;47.856;12.344;2023-10-09T09:30:49;8.40;;;2.92;;
16484;SDS011;8353;47.856;12.344;2023-10-09T09:34:14;9.95;;;3.00;;
16484;SDS011;8353;47.856;12.344;2023-10-09T09:36:57;13.27;;;3.92;;
16484;SDS011;8353;47.856;12.344;2023-10-09T09:39:33;7.90;;;2.70;;
16484;SDS011;8353;47.856;12.344;2023-10-09T09:42:04;8.77;;;3.17;;
16484;SDS011;8353;47.856;12.344;2023-10-09T09:44:36;9.07;;;3.15;;
16484;SDS011;8353;47.856;12.344;2023-10-09T09:47:13;8.57;;;2.80;;
16484;SDS011;8353;47.856;12.344;2023-10-09T09:49:52;6.72;;;2.70;;
16484;SDS011;8353;47.856;12.344;2023-10-09T09:52:29;11.90;;;3.75;;
16484;SDS011;8353;47.856;12.344;2023-10-09T09:55:06;14.20;;;3.20;;
16484;SDS011;8353;47.856;12.344;2023-10-09T09:57:44;11.85;;;3.95;;
16484;SDS011;8353;47.856;12.344;2023-10-09T10:00:20;9.13;;;2.97;;
16484;SDS011;8353;47.856;12.344;2023-10-09T10:03:01;11.23;;;2.88;;
16484;SDS011;8353;47.856;12.344;2023-10-09T10:05:36;12.15;;;3.45;;
16484;SDS011;8353;47.856;12.344;2023-10-09T10:08:10;10.98;;;3.00;;
16484;SDS011;8353;47.856;12.344;2023-10-09T10:10:42;14.88;;;3.42;;
16484;SDS011;8353;47.856;12.344;2023-10-09T10:16:28;10.93;;;3.22;;
16484;SDS011;8353;47.856;12.344;2023-10-09T10:19:03;8.05;;;3.40;;
16484;SDS011;8353;47.856;12.344;2023-10-09T10:21:49;9.38;;;3.30;;
16484;SDS011;8353;47.856;12.344;2023-10-09T10:24:41;11.13;;;3.55;;
16484;SDS011;8353;47.856;12.344;2023-10-09T10:27:21;11.90;;;3.72;;
16484;SDS011;8353;47.856;12.344;2023-10-09T10:33:05;10.02;;;3.17;;
16484;SDS011;8353;47.856;12.344;2023-10-09T10:35:43;8.80;;;3.10;;
16484;SDS011;8353;47.856;12.344;2023-10-09T10:38:24;12.68;;;3.80;;
16484;SDS011;8353;47.856;12.344;2023-10-09T10:41:13;11.60;;;3.08;;
16484;SDS011;8353;47.856;12.344;2023-10-09T10:43:51;10.68;;;3.55;;
16484;SDS011;8353;47.856;12.344;2023-10-09T10:46:29;15.95;;;3.60;;
16484;SDS011;8353;47.856;12.344;2023-10-09T10:49:07;14.25;;;3.40;;
16484;SDS011;8353;47.856;12.344;2023-10-09T10:51:49;10.07;;;3.22;;
16484;SDS011;8353;47.856;12.344;2023-10-09T10:54:31;11.02;;;3.20;;
16484;SDS011;8353;47.856;12.344;2023-10-09T10:57:39;7.65;;;2.90;;
16484;SDS011;8353;47.856;12.344;2023-10-09T11:00:30;9.52;;;3.53;;
16484;SDS011;8353;47.856;12.344;2023-10-09T11:03:18;7.65;;;2.90;;
16484;SDS011;8353;47.856;12.344;2023-10-09T11:06:00;9.90;;;3.55;;
16484;SDS011;8353;47.856;12.344;2023-10-09T11:08:45;14.02;;;4.00;;
16484;SDS011;8353;47.856;12.344;2023-10-09T11:11:23;10.35;;;3.65;;
16484;SDS011;8353;47.856;12.344;2023-10-09T11:14:08;11.68;;;3.80;;
16484;SDS011;8353;47.856;12.344;2023-10-09T11:16:43;8.40;;;2.60;;
16484;SDS011;8353;47.856;12.344;2023-10-09T11:19:19;8.23;;;3.28;;
16484;SDS011;8353;47.856;12.344;2023-10-09T11:22:00;9.35;;;2.92;;
16484;SDS011;8353;47.856;12.344;2023-10-09T11:24:50;7.43;;;2.63;;
16484;SDS011;8353;47.856;12.344;2023-10-09T11:27:39;11.60;;;3.40;;
16484;SDS011;8353;47.856;12.344;2023-10-09T11:30:20;13.60;;;3.20;;
16484;SDS011;8353;47.856;12.344;2023-10-09T11:33:03;11.35;;;3.08;;
16484;SDS011;8353;47.856;12.344;2023-10-09T11:35:33;13.18;;;3.40;;
16484;SDS011;8353;47.856;12.344;2023-10-09T11:38:04;9.85;;;3.08;;
16484;SDS011;8353;47.856;12.344;2023-10-09T11:40:49;6.43;;;2.60;;
16484;SDS011;8353;47.856;12.344;2023-10-09T11:43:48;9.32;;;3.72;;
16484;SDS011;8353;47.856;12.344;2023-10-09T11:46:23;10.50;;;3.25;;
16484;SDS011;8353;47.856;12.344;2023-10-09T11:49:17;14.00;;;3.60;;
16484;SDS011;8353;47.856;12.344;2023-10-09T11:52:09;11.18;;;3.63;;
16484;SDS011;8353;47.856;12.344;2023-10-09T11:54:53;10.18;;;3.53;;
16484;SDS011;8353;47.856;12.344;2023-10-09T11:57:26;10.90;;;3.47;;
16484;SDS011;8353;47.856;12.344;2023-10-09T12:00:09;10.77;;;3.28;;
16484;SDS011;8353;47.856;12.344;2023-10-09T12:02:54;9.63;;;3.85;;
16484;SDS011;8353;47.856;12.344;2023-10-09T12:05:25;10.73;;;3.28;;
16484;SDS011;8353;47.856;12.344;2023-10-09T12:07:56;13.30;;;3.28;;
16484;SDS011;8353;47.856;12.344;2023-10-09T12:10:29;11.32;;;3.30;;
16484;SDS011;8353;47.856;12.344;2023-10-09T12:12:59;9.15;;;3.55;;
16484;SDS011;8353;47.856;12.344;2023-10-09T12:15:33;11.23;;;3.53;;
16484;SDS011;8353;47.856;12.344;2023-10-09T12:18:08;8.82;;;3.30;;
16484;SDS011;8353;47.856;12.344;2023-10-09T12:20:44;8.02;;;2.92;;
16484;SDS011;8353;47.856;12.344;2023-10-09T12:23:20;12.73;;;3.80;;
16484;SDS011;8353;47.856;12.344;2023-10-09T12:25:51;9.18;;;3.30;;
16484;SDS011;8353;47.856;12.344;2023-10-09T12:28:25;14.60;;;3.78;;
16484;SDS011;8353;47.856;12.344;2023-10-09T12:30:55;15.05;;;3.80;;
16484;SDS011;8353;47.856;12.344;2023-10-09T12:33:31;12.35;;;3.47;;
16484;SDS011;8353;47.856;12.344;2023-10-09T12:36:01;10.57;;;3.47;;
16484;SDS011;8353;47.856;12.344;2023-10-09T12:38:33;8.18;;;3.30;;
16484;SDS011;8353;47.856;12.344;2023-10-09T12:44:42;12.23;;;3.42;;
16484;SDS011;8353;47.856;12.344;2023-10-09T12:47:13;13.52;;;3.25;;
16484;SDS011;8353;47.856;12.344;2023-10-09T12:49:45;15.30;;;3.95;;
16484;SDS011;8353;47.856;12.344;2023-10-09T12:52:16;7.97;;;3.53;;
16484;SDS011;8353;47.856;12.344;2023-10-09T12:57:48;9.02;;;3.78;;
16484;SDS011;8353;47.856;12.344;2023-10-09T13:00:26;10.27;;;3.80;;
16484;SDS011;8353;47.856;12.344;2023-10-09T13:03:01;16.00;;;4.25;;
16484;SDS011;8353;47.856;12.344;2023-10-09T13:05:47;16.33;;;4.03;;
16484;SDS011;8353;47.856;12.344;2023-10-09T13:08:25;13.73;;;4.47;;
16484;SDS011;8353;47.856;12.344;2023-10-09T13:11:01;15.43;;;4.97;;
16484;SDS011;8353;47.856;12.344;2023-10-09T13:13:40;13.07;;;4.63;;
16484;SDS011;8353;47.856;12.344;2023-10-09T13:16:11;13.52;;;4.05;;
16484;SDS011;8353;47.856;12.344;2023-10-09T13:18:51;10.63;;;3.65;;
16484;SDS011;8353;47.856;12.344;2023-10-09T13:21:25;18.77;;;5.53;;
16484;SDS011;8353;47.856;12.344;2023-10-09T13:24:00;18.35;;;5.55;;
16484;SDS011;8353;47.856;12.344;2023-10-09T13:26:31;22.60;;;5.22;;
16484;SDS011;8353;47.856;12.344;2023-10-09T13:29:03;13.75;;;4.57;;
16484;SDS011;8353;47.856;12.344;2023-10-09T13:31:38;11.88;;;4.03;;
16484;SDS011;8353;47.856;12.344;2023-10-09T13:34:15;11.20;;;3.97;;
16484;SDS011;8353;47.856;12.344;2023-10-09T13:36:47;14.60;;;4.30;;
16484;SDS011;8353;47.856;12.344;2023-10-09T13:39:21;13.35;;;4.53;;
16484;SDS011;8353;47.856;12.344;2023-10-09T13:41:56;14.13;;;4.75;;
16484;SDS011;8353;47.856;12.344;2023-10-09T13:44:27;15.40;;;4.60;;
16484;SDS011;8353;47.856;12.344;2023-10-09T13:47:00;18.33;;;5.15;;
16484;SDS011;8353;47.856;12.344;2023-10-09T13:49:34;18.30;;;5.07;;
16484;SDS011;8353;47.856;12.344;2023-10-09T13:52:10;15.05;;;4.43;;
16484;SDS011;8353;47.856;12.344;2023-10-09T13:54:47;16.52;;;4.45;;
16484;SDS011;8353;47.856;12.344;2023-10-09T13:57:18;13.45;;;4.75;;
16484;SDS011;8353;47.856;12.344;2023-10-09T13:59:51;15.95;;;5.18;;
16484;SDS011;8353;47.856;12.344;2023-10-09T14:02:24;14.43;;;4.95;;
16484;SDS011;8353;47.856;12.344;2023-10-09T14:04:57;14.35;;;4.32;;
16484;SDS011;8353;47.856;12.344;2023-10-09T14:07:31;18.92;;;5.47;;
16484;SDS011;8353;47.856;12.344;2023-10-09T14:10:04;14.60;;;5.28;;
16484;SDS011;8353;47.856;12.344;2023-10-09T14:12:46;14.48;;;4.50;;
16484;SDS011;8353;47.856;12.344;2023-10-09T14:15:22;14.85;;;4.72;;
16484;SDS011;8353;47.856;12.344;2023-10-09T14:17:52;14.60;;;4.80;;
16484;SDS011;8353;47.856;12.344;2023-10-09T14:20:25;15.77;;;4.70;;
16484;SDS011;8353;47.856;12.344;2023-10-09T14:23:01;16.15;;;5.45;;
16484;SDS011;8353;47.856;12.344;2023-10-09T14:25:36;16.52;;;4.85;;
16484;SDS011;8353;47.856;12.344;2023-10-09T14:28:08;18.55;;;4.55;;
16484;SDS011;8353;47.856;12.344;2023-10-09T14:30:47;20.80;;;5.50;;
16484;SDS011;8353;47.856;12.344;2023-10-09T14:33:27;12.75;;;4.30;;
16484;SDS011;8353;47.856;12.344;2023-10-09T14:36:04;18.30;;;4.57;;
16484;SDS011;8353;47.856;12.344;2023-10-09T14:38:37;13.07;;;4.57;;
16484;SDS011;8353;47.856;12.344;2023-10-09T14:41:07;18.85;;;4.95;;
16484;SDS011;8353;47.856;12.344;2023-10-09T14:43:39;16.75;;;5.15;;
16484;SDS011;8353;47.856;12.344;2023-10-09T14:46:12;16.10;;;4.70;;
16484;SDS011;8353;47.856;12.344;2023-10-09T14:48:49;14.63;;;4.60;;
16484;SDS011;8353;47.856;12.344;2023-10-09T14:51:22;8.15;;;3.25;;
16484;SDS011;8353;47.856;12.344;2023-10-09T14:53:58;13.88;;;5.10;;
16484;SDS011;8353;47.856;12.344;2023-10-09T14:56:30;18.55;;;6.63;;
16484;SDS011;8353;47.856;12.344;2023-10-09T14:59:04;14.68;;;4.88;;
16484;SDS011;8353;47.856;12.344;2023-10-09T15:01:35;14.60;;;5.18;;
16484;SDS011;8353;47.856;12.344;2023-10-09T15:04:05;14.95;;;4.28;;
16484;SDS011;8353;47.856;12.344;2023-10-09T15:06:41;13.70;;;4.90;;
16484;SDS011;8353;47.856;12.344;2023-10-09T15:09:12;15.73;;;5.05;;
16484;SDS011;8353;47.856;12.344;2023-10-09T15:11:50;18.10;;;6.38;;
16484;SDS011;8353;47.856;12.344;2023-10-09T15:14:21;18.33;;;4.93;;
16484;SDS011;8353;47.856;12.344;2023-10-09T15:16:52;13.77;;;4.38;;
16484;SDS011;8353;47.856;12.344;2023-10-09T15:19:22;14.48;;;4.47;;
16484;SDS011;8353;47.856;12.344;2023-10-09T15:21:57;16.80;;;4.82;;
16484;SDS011;8353;47.856;12.344;2023-10-09T15:24:29;13.07;;;3.50;;
16484;SDS011;8353;47.856;12.344;2023-10-09T15:27:00;12.90;;;4.00;;
16484;SDS011;8353;47.856;12.344;2023-10-09T15:29:30;16.80;;;4.13;;
16484;SDS011;8353;47.856;12.344;2023-10-09T15:32:02;11.68;;;3.45;;
16484;SDS011;8353;47.856;12.344;2023-10-09T15:34:34;10.48;;;4.05;;
16484;SDS011;8353;47.856;12.344;2023-10-09T15:37:04;16.50;;;5.97;;
16484;SDS011;8353;47.856;12.344;2023-10-09T15:39:37;9.60;;;3.78;;
16484;SDS011;8353;47.856;12.344;2023-10-09T15:42:08;13.07;;;3.88;;
16484;SDS011;8353;47.856;12.344;2023-10-09T15:44:42;11.50;;;4.03;;
16484;SDS011;8353;47.856;12.344;2023-10-09T15:47:16;11.43;;;3.47;;
16484;SDS011;8353;47.856;12.344;2023-10-09T15:49:48;11.23;;;3.92;;
16484;SDS011;8353;47.856;12.344;2023-10-09T15:52:23;10.18;;;3.88;;
16484;SDS011;8353;47.856;12.344;2023-10-09T15:54:56;11.13;;;4.35;;
16484;SDS011;8353;47.856;12.344;2023-10-09T15:57:26;12.55;;;3.83;;
16484;SDS011;8353;47.856;12.344;2023-10-09T15:59:59;9.43;;;3.72;;
16484;SDS011;8353;47.856;12.344;2023-10-09T16:02:29;12.10;;;3.63;;